createdAt,value
2017-12-05T00:00:04.469Z,84.76
2017-12-05T00:02:32.584Z,86.06
2017-12-05T00:05:00.936Z,85.71
2017-12-05T00:07:29.327Z,88.54
2017-12-05T00:09:57.678Z,86.62
2017-12-05T00:12:26.031Z,89.00
2017-12-05T00:14:55.176Z,87.55
2017-12-05T00:17:23.527Z,85.41
2017-12-05T00:19:52.072Z,85.65
2017-12-05T00:22:20.415Z,85.38
2017-12-05T00:24:48.767Z,84.65
2017-12-05T00:27:17.118Z,86.84
2017-12-05T00:29:45.492Z,86.78
2017-12-05T00:32:13.864Z,86.69
2017-12-05T00:34:42.208Z,88.35
2017-12-05T00:37:10.603Z,89.08
2017-12-05T00:39:38.950Z,86.33
2017-12-05T00:42:07.300Z,86.50
2017-12-05T00:44:35.677Z,86.82
2017-12-05T00:47:04.023Z,88.45
2017-12-05T00:49:32.411Z,88.25
2017-12-05T00:52:00.768Z,89.10
2017-12-05T00:54:29.110Z,88.29
2017-12-05T00:56:57.455Z,89.45
2017-12-05T00:59:25.848Z,88.94
2017-12-05T01:01:54.202Z,87.17
2017-12-05T01:04:22.550Z,88.59
2017-12-05T01:06:50.962Z,86.89
2017-12-05T01:09:19.310Z,88.29
2017-12-05T01:11:47.655Z,88.87
2017-12-05T01:14:16.006Z,88.92
2017-12-05T01:16:44.355Z,87.65
2017-12-05T01:19:12.728Z,87.87
2017-12-05T01:21:41.110Z,89.69
2017-12-05T01:24:09.455Z,89.23
2017-12-05T01:26:37.851Z,86.73
2017-12-05T01:29:06.208Z,87.12
2017-12-05T01:31:34.558Z,87.25
2017-12-05T01:34:02.948Z,88.83
2017-12-05T01:36:31.307Z,89.25
2017-12-05T01:38:59.658Z,88.13
2017-12-05T01:41:28.015Z,85.49
2017-12-05T01:43:56.358Z,86.11
2017-12-05T01:46:24.736Z,86.60
2017-12-05T01:48:53.107Z,88.74
2017-12-05T01:51:21.459Z,87.83
2017-12-05T01:53:49.809Z,84.85
2017-12-05T01:56:18.161Z,83.96
2017-12-05T01:58:46.503Z,83.60
2017-12-05T02:01:14.886Z,84.59
2017-12-05T02:03:43.240Z,84.92
2017-12-05T02:06:11.608Z,86.03
2017-12-05T02:08:39.985Z,88.04
2017-12-05T02:11:08.359Z,88.11
2017-12-05T02:13:36.699Z,87.96
2017-12-05T02:16:05.050Z,84.89
2017-12-05T02:18:33.439Z,86.23
2017-12-05T02:21:01.793Z,87.36
2017-12-05T02:23:30.143Z,85.90
2017-12-05T02:25:58.486Z,87.10
2017-12-05T02:28:26.839Z,86.15
2017-12-05T02:30:55.238Z,83.96
2017-12-05T02:33:23.824Z,83.52
2017-12-05T02:35:52.172Z,83.56
2017-12-05T02:38:20.536Z,87.18
2017-12-05T02:41:00.627Z,86.26
2017-12-05T02:43:28.986Z,85.84
2017-12-05T02:45:57.351Z,83.64
2017-12-05T02:48:25.702Z,86.14
2017-12-05T02:50:54.067Z,87.77
2017-12-05T02:53:22.415Z,86.27
2017-12-05T02:55:50.897Z,84.84
2017-12-05T02:58:19.565Z,86.75
2017-12-05T03:00:48.247Z,84.90
2017-12-05T03:03:16.930Z,87.01
2017-12-05T03:05:45.408Z,85.67
2017-12-05T03:08:13.758Z,87.93
2017-12-05T03:10:42.143Z,87.31
2017-12-05T03:13:10.483Z,87.29
2017-12-05T03:15:38.834Z,84.98
2017-12-05T03:18:07.211Z,83.89
2017-12-05T03:20:35.574Z,86.92
2017-12-05T03:23:03.965Z,84.68
2017-12-05T03:25:32.348Z,84.11
2017-12-05T03:28:00.702Z,85.64
2017-12-05T03:30:29.051Z,86.29
2017-12-05T03:32:57.406Z,84.49
2017-12-05T03:35:25.779Z,84.03
2017-12-05T03:37:54.159Z,86.61
2017-12-05T03:40:22.521Z,84.22
2017-12-05T03:42:50.886Z,84.86
2017-12-05T03:45:19.215Z,85.02
2017-12-05T03:47:47.566Z,84.11
2017-12-05T03:50:16.046Z,84.92
2017-12-05T03:52:44.443Z,84.62
2017-12-05T03:55:12.803Z,87.05
2017-12-05T03:57:41.139Z,82.78
2017-12-05T04:00:30.924Z,84.30
2017-12-05T04:02:59.275Z,84.55
2017-12-05T04:05:27.651Z,80.95
2017-12-05T04:07:56.076Z,79.86
2017-12-05T04:10:24.420Z,82.12
2017-12-05T04:12:52.815Z,83.10
2017-12-05T04:15:21.180Z,85.80
2017-12-05T04:17:49.530Z,81.44
2017-12-05T04:20:17.905Z,82.82
2017-12-05T04:22:46.259Z,83.11
2017-12-05T04:25:14.620Z,82.06
2017-12-05T04:27:43.007Z,85.44
2017-12-05T04:30:11.395Z,85.79
2017-12-05T04:32:39.743Z,82.97
2017-12-05T04:35:08.095Z,83.94
2017-12-05T04:37:36.527Z,82.01
2017-12-05T04:40:04.899Z,82.00
2017-12-05T04:42:33.276Z,84.70
2017-12-05T04:45:01.795Z,85.14
2017-12-05T04:47:30.147Z,85.77
2017-12-05T04:49:58.505Z,84.94
2017-12-05T04:52:27.755Z,85.73
2017-12-05T04:54:56.114Z,83.99
2017-12-05T04:57:24.480Z,84.36
2017-12-05T04:59:52.869Z,84.86
2017-12-05T05:02:21.229Z,83.25
2017-12-05T05:04:49.616Z,85.86
2017-12-05T05:07:17.981Z,86.72
2017-12-05T05:09:46.323Z,87.27
2017-12-05T05:12:14.710Z,85.58
2017-12-05T05:14:43.082Z,85.31
2017-12-05T05:17:11.474Z,84.39
2017-12-05T05:19:40.658Z,83.87
2017-12-05T05:22:09.006Z,83.41
2017-12-05T05:24:37.405Z,85.48
2017-12-05T05:27:05.760Z,85.20
2017-12-05T05:29:34.117Z,81.51
2017-12-05T05:32:02.494Z,81.29
2017-12-05T05:34:30.841Z,80.59
2017-12-05T05:36:59.196Z,80.65
2017-12-05T05:39:27.570Z,81.01
2017-12-05T05:41:55.919Z,81.68
2017-12-05T05:44:24.319Z,83.12
2017-12-05T05:46:52.668Z,82.48
2017-12-05T05:49:21.030Z,83.03
2017-12-05T05:51:49.579Z,84.60
2017-12-05T05:54:17.932Z,82.75
2017-12-05T05:56:46.270Z,84.97
2017-12-05T05:59:14.655Z,83.35
2017-12-05T06:01:43.014Z,83.42
2017-12-05T06:04:11.403Z,81.68
2017-12-05T06:06:39.774Z,80.51
2017-12-05T06:09:08.152Z,79.50
2017-12-05T06:11:36.502Z,81.03
2017-12-05T06:14:04.846Z,81.85
2017-12-05T06:16:36.248Z,80.34
2017-12-05T06:19:04.593Z,83.46
2017-12-05T06:21:33.227Z,79.72
2017-12-05T06:24:01.606Z,79.95
2017-12-05T06:26:31.379Z,78.42
2017-12-05T06:28:59.806Z,79.77
2017-12-05T06:31:29.333Z,79.72
2017-12-05T06:34:01.031Z,82.33
2017-12-05T06:36:30.366Z,82.80
2017-12-05T06:38:58.741Z,81.45
2017-12-05T06:41:29.804Z,81.35
2017-12-05T06:43:58.178Z,81.03
2017-12-05T06:46:26.591Z,82.69
2017-12-05T06:48:55.965Z,80.23
2017-12-05T06:51:24.321Z,80.48
2017-12-05T06:53:52.680Z,81.07
2017-12-05T06:56:21.027Z,83.99
2017-12-05T06:58:49.442Z,81.84
2017-12-05T07:01:17.783Z,82.40
2017-12-05T07:03:46.125Z,81.50
2017-12-05T07:06:14.475Z,82.49
2017-12-05T07:08:42.814Z,86.71
2017-12-05T07:11:11.180Z,84.15
2017-12-05T07:13:40.598Z,84.29
2017-12-05T07:16:08.972Z,85.64
2017-12-05T07:18:37.329Z,84.06
2017-12-05T07:21:05.671Z,82.94
2017-12-05T07:23:34.015Z,84.50
2017-12-05T07:26:02.367Z,82.47
2017-12-05T07:28:30.743Z,81.88
2017-12-05T07:30:59.088Z,80.32
2017-12-05T07:33:27.451Z,83.57
2017-12-05T07:35:55.810Z,82.46
2017-12-05T07:38:24.151Z,84.89
2017-12-05T07:40:52.556Z,83.42
2017-12-05T07:43:20.903Z,82.17
2017-12-05T07:45:49.239Z,82.82
2017-12-05T07:48:17.582Z,84.52
2017-12-05T07:50:45.932Z,82.53
2017-12-05T07:53:14.330Z,82.83
2017-12-05T07:55:42.688Z,82.03
2017-12-05T07:58:11.035Z,82.67
2017-12-05T08:00:39.388Z,82.84
2017-12-05T08:03:07.728Z,82.84
2017-12-05T08:05:36.212Z,82.57
2017-12-05T08:08:04.555Z,80.57
2017-12-05T08:10:32.896Z,82.27
2017-12-05T08:13:01.247Z,83.85
2017-12-05T08:15:29.585Z,83.65
2017-12-05T08:17:57.966Z,79.92
2017-12-05T08:20:26.307Z,81.09
2017-12-05T08:22:54.655Z,82.28
2017-12-05T08:25:22.999Z,83.47
2017-12-05T08:27:51.339Z,84.70
2017-12-05T08:30:19.727Z,83.21
2017-12-05T08:32:48.067Z,81.69
2017-12-05T08:35:16.417Z,81.26
2017-12-05T08:37:44.767Z,82.62
2017-12-05T08:40:13.131Z,81.29
2017-12-05T08:42:41.487Z,80.72
2017-12-05T08:45:09.827Z,80.53
2017-12-05T08:47:38.199Z,80.57
2017-12-05T08:50:06.547Z,81.09
2017-12-05T08:52:34.890Z,81.70
2017-12-05T08:55:03.246Z,80.10
2017-12-05T08:57:31.621Z,80.07
2017-12-05T08:59:59.959Z,79.85
2017-12-05T09:02:28.315Z,81.58
2017-12-05T09:04:56.687Z,83.70
2017-12-05T09:07:25.032Z,82.53
2017-12-05T09:09:53.375Z,81.60
2017-12-05T09:12:21.758Z,83.41
2017-12-05T09:14:50.105Z,83.67
2017-12-05T09:17:18.442Z,79.83
2017-12-05T09:19:46.788Z,78.84
2017-12-05T09:22:15.125Z,79.61
2017-12-05T09:24:43.520Z,79.58
2017-12-05T09:27:11.856Z,78.80
2017-12-05T09:29:40.208Z,80.61
2017-12-05T09:32:08.540Z,81.85
2017-12-05T09:34:36.895Z,82.30
2017-12-05T09:37:05.252Z,80.20
2017-12-05T09:39:33.592Z,82.21
2017-12-05T09:42:01.959Z,81.04
2017-12-05T09:44:30.312Z,80.75
2017-12-05T09:46:58.671Z,80.55
2017-12-05T09:49:27.017Z,81.21
2017-12-05T09:51:55.418Z,84.69
2017-12-05T09:54:23.769Z,82.58
2017-12-05T09:56:52.120Z,79.65
2017-12-05T09:59:20.466Z,82.12
2017-12-05T10:01:48.823Z,84.17
2017-12-05T10:04:17.179Z,83.50
2017-12-05T10:06:45.539Z,80.19
2017-12-05T10:09:13.901Z,81.59
2017-12-05T10:11:42.276Z,81.85
2017-12-05T10:14:10.619Z,82.67
2017-12-05T10:16:38.963Z,81.15
2017-12-05T10:19:07.317Z,80.45
2017-12-05T10:21:35.660Z,79.48
2017-12-05T10:24:04.036Z,81.08
2017-12-05T10:26:32.384Z,82.03
2017-12-05T10:29:00.747Z,82.34
2017-12-05T10:31:29.092Z,84.56
2017-12-05T10:33:57.440Z,81.40
2017-12-05T10:36:25.779Z,85.49
2017-12-05T10:38:54.139Z,83.03
2017-12-05T10:41:22.501Z,83.62
2017-12-05T10:43:50.865Z,84.54
2017-12-05T10:46:19.205Z,80.22
2017-12-05T10:48:47.568Z,81.66
2017-12-05T10:51:15.959Z,82.51
2017-12-05T10:53:44.323Z,82.34
2017-12-05T10:56:12.680Z,82.08
2017-12-05T10:58:41.080Z,81.64
2017-12-05T11:01:09.423Z,83.38
2017-12-05T11:03:37.784Z,79.75
2017-12-05T11:06:06.152Z,83.73
2017-12-05T11:08:34.500Z,83.14
2017-12-05T11:11:02.854Z,81.04
2017-12-05T11:13:31.211Z,81.11
2017-12-05T11:15:59.568Z,83.22
2017-12-05T11:18:27.916Z,80.76
2017-12-05T11:20:56.280Z,80.63
2017-12-05T11:23:24.627Z,82.62
2017-12-05T11:25:52.979Z,81.46
2017-12-05T11:28:21.325Z,78.64
2017-12-05T11:30:49.749Z,81.64
2017-12-05T11:33:18.056Z,78.92
2017-12-05T11:35:46.435Z,78.83
2017-12-05T11:38:14.770Z,81.09
2017-12-05T11:40:43.142Z,78.43
2017-12-05T11:43:11.500Z,77.81
2017-12-05T11:45:39.849Z,77.38
2017-12-05T11:48:08.240Z,76.69
2017-12-05T11:50:36.593Z,78.87
2017-12-05T11:53:04.936Z,77.85
2017-12-05T11:55:33.332Z,76.69
2017-12-05T11:58:01.683Z,77.55
2017-12-05T12:00:30.036Z,75.50
2017-12-05T12:02:58.420Z,77.63
2017-12-05T12:05:26.800Z,77.12
2017-12-05T12:07:55.138Z,78.42
2017-12-05T12:10:23.491Z,79.02
2017-12-05T12:12:51.844Z,80.89
2017-12-05T12:15:20.256Z,80.05
2017-12-05T12:17:48.664Z,80.52
2017-12-05T12:20:17.058Z,80.26
2017-12-05T12:22:46.603Z,80.33
2017-12-05T12:25:14.980Z,78.36
2017-12-05T12:27:43.369Z,78.90
2017-12-05T12:30:11.805Z,80.86
2017-12-05T12:32:40.168Z,81.47
2017-12-05T12:35:08.539Z,77.62
2017-12-05T12:37:36.974Z,80.06
2017-12-05T12:40:05.315Z,79.08
2017-12-05T12:42:33.823Z,79.47
2017-12-05T12:45:02.178Z,80.61
2017-12-05T12:47:30.519Z,77.92
2017-12-05T12:49:58.877Z,79.05
2017-12-05T12:52:27.273Z,77.77
2017-12-05T12:54:55.619Z,79.09
2017-12-05T12:57:23.974Z,76.45
2017-12-05T12:59:52.347Z,76.79
2017-12-05T13:02:20.700Z,76.30
2017-12-05T13:04:49.047Z,78.20
2017-12-05T13:07:17.432Z,79.53
2017-12-05T13:09:45.782Z,75.89
2017-12-05T13:12:14.167Z,78.31
2017-12-05T13:14:42.543Z,77.44
2017-12-05T13:17:10.883Z,78.30
2017-12-05T13:19:39.235Z,79.92
2017-12-05T13:22:07.589Z,79.89
2017-12-05T13:24:35.956Z,77.48
2017-12-05T13:27:04.354Z,78.56
2017-12-05T13:29:32.699Z,79.74
2017-12-05T13:32:01.043Z,76.78
2017-12-05T13:34:29.391Z,78.56
2017-12-05T13:36:57.740Z,78.30
2017-12-05T13:39:26.114Z,78.55
2017-12-05T13:41:54.467Z,78.83
2017-12-05T13:44:22.820Z,79.32
2017-12-05T13:46:51.174Z,78.88
2017-12-05T13:49:19.558Z,81.03
2017-12-05T13:51:47.903Z,80.49
2017-12-05T13:54:16.248Z,79.01
2017-12-05T13:56:44.600Z,80.42
2017-12-05T13:59:12.957Z,81.29
2017-12-05T14:01:41.349Z,80.53
2017-12-05T14:04:09.740Z,78.86
2017-12-05T14:06:38.090Z,78.33
2017-12-05T14:09:06.439Z,78.07
2017-12-05T14:11:34.788Z,80.95
2017-12-05T14:14:03.170Z,79.54
2017-12-05T14:16:31.520Z,78.48
2017-12-05T14:18:59.928Z,78.42
2017-12-05T14:21:28.277Z,79.82
2017-12-05T14:23:56.683Z,78.66
2017-12-05T14:26:25.026Z,77.21
2017-12-05T14:28:53.399Z,78.51
2017-12-05T14:31:21.776Z,79.05
2017-12-05T14:33:50.131Z,79.50
2017-12-05T14:36:18.474Z,80.04
2017-12-05T14:38:46.828Z,78.98
2017-12-05T14:41:15.207Z,78.25
2017-12-05T14:43:43.579Z,78.83
2017-12-05T14:46:11.941Z,80.09
2017-12-05T14:48:40.331Z,80.20
2017-12-05T14:51:08.681Z,79.09
2017-12-05T14:53:37.036Z,78.81
2017-12-05T14:56:05.427Z,78.43
2017-12-05T14:58:33.773Z,78.22
2017-12-05T15:01:02.147Z,79.81
2017-12-05T15:03:30.511Z,79.84
2017-12-05T15:05:58.865Z,80.21
2017-12-05T15:08:27.217Z,78.41
2017-12-05T15:10:55.556Z,78.16
2017-12-05T15:13:23.944Z,79.37
2017-12-05T15:15:52.289Z,76.92
2017-12-05T15:18:20.952Z,77.99
2017-12-05T15:23:45.049Z,80.55
2017-12-05T15:26:13.431Z,79.17
2017-12-05T15:28:41.792Z,79.14
2017-12-05T15:31:10.147Z,79.19
2017-12-05T15:33:38.506Z,79.48
2017-12-05T15:36:06.986Z,80.31
2017-12-05T15:38:35.327Z,80.31
2017-12-05T15:41:03.675Z,77.19
2017-12-05T15:43:32.036Z,78.49
2017-12-05T15:46:00.397Z,78.34
2017-12-05T15:48:28.749Z,79.72
2017-12-05T15:50:57.208Z,78.29
2017-12-05T15:53:25.580Z,76.94
2017-12-05T15:55:53.924Z,76.18
2017-12-05T15:58:22.271Z,77.51
2017-12-05T16:00:50.619Z,78.80
2017-12-05T16:03:18.992Z,80.13
2017-12-05T16:05:47.375Z,78.86
2017-12-05T16:08:15.728Z,77.25
2017-12-05T16:10:44.111Z,79.02
2017-12-05T16:13:12.455Z,75.58
2017-12-05T16:15:40.800Z,76.91
2017-12-05T16:18:09.151Z,78.29
2017-12-05T16:20:37.499Z,78.43
2017-12-05T16:23:05.900Z,80.84
2017-12-05T16:25:34.293Z,78.87
2017-12-05T16:28:02.636Z,79.39
2017-12-05T16:30:30.987Z,78.12
2017-12-05T16:32:59.365Z,78.25
2017-12-05T16:35:27.717Z,78.55
2017-12-05T16:37:56.111Z,80.00
2017-12-05T16:40:24.587Z,79.53
2017-12-05T16:42:52.947Z,77.90
2017-12-05T16:45:21.298Z,76.37
2017-12-05T16:47:49.743Z,80.02
2017-12-05T16:50:18.093Z,76.74
2017-12-05T16:52:46.459Z,75.87
2017-12-05T16:55:14.835Z,77.68
2017-12-05T16:57:43.183Z,78.12
2017-12-05T17:00:11.566Z,77.16
2017-12-05T17:02:39.911Z,78.53
2017-12-05T17:05:08.261Z,77.14
2017-12-05T17:07:37.048Z,76.43
2017-12-05T17:10:05.395Z,76.53
2017-12-05T17:12:33.743Z,77.78
2017-12-05T17:15:02.087Z,79.97
2017-12-05T17:17:30.495Z,79.07
2017-12-05T17:19:58.852Z,77.01
2017-12-05T17:22:27.206Z,78.30
2017-12-05T17:24:55.555Z,76.79
2017-12-05T17:27:23.904Z,77.49
2017-12-05T17:29:52.337Z,75.13
2017-12-05T17:32:20.699Z,78.25
2017-12-05T17:34:49.073Z,78.90
2017-12-05T17:37:17.419Z,76.89
2017-12-05T17:39:45.771Z,76.19
2017-12-05T17:42:14.171Z,76.49
2017-12-05T17:44:42.518Z,78.62
2017-12-05T17:47:10.903Z,79.08
2017-12-05T17:49:39.246Z,77.78
2017-12-05T17:52:07.604Z,79.94
2017-12-05T17:54:35.985Z,77.84
2017-12-05T17:57:04.343Z,75.99
2017-12-05T17:59:32.762Z,78.56
2017-12-05T18:02:01.112Z,76.99
2017-12-05T18:04:29.460Z,78.43
2017-12-05T18:06:57.892Z,77.46
2017-12-05T18:09:26.240Z,77.86
2017-12-05T18:11:54.591Z,78.70
2017-12-05T18:14:22.975Z,80.31
2017-12-05T18:16:51.331Z,80.44
2017-12-05T18:19:19.675Z,77.68
2017-12-05T18:21:48.019Z,79.43
2017-12-05T18:24:16.368Z,80.20
2017-12-05T18:26:44.810Z,77.37
2017-12-05T18:29:13.131Z,77.12
2017-12-05T18:31:41.483Z,76.10
2017-12-05T18:34:09.851Z,76.82
2017-12-05T18:36:38.187Z,79.18
2017-12-05T18:39:06.564Z,79.76
2017-12-05T18:41:34.910Z,80.08
2017-12-05T18:44:04.221Z,80.00
2017-12-05T18:46:32.569Z,80.62
2017-12-05T18:49:00.967Z,78.51
2017-12-05T18:51:29.355Z,76.57
2017-12-05T18:53:57.706Z,77.97
2017-12-05T18:56:26.143Z,75.76
2017-12-05T18:58:54.524Z,77.68
2017-12-05T19:01:22.875Z,77.52
2017-12-05T19:03:51.271Z,75.20
2017-12-05T19:06:19.628Z,75.32
2017-12-05T19:08:47.976Z,76.92
2017-12-05T19:11:16.804Z,76.10
2017-12-05T19:13:45.215Z,77.92
2017-12-05T19:16:13.587Z,77.51
2017-12-05T19:18:41.936Z,81.24
2017-12-05T19:21:10.292Z,79.26
2017-12-05T19:23:38.647Z,77.47
2017-12-05T19:26:07.003Z,77.77
2017-12-05T19:28:35.404Z,77.11
2017-12-05T19:31:03.750Z,76.85
2017-12-05T19:33:32.182Z,77.69
2017-12-05T19:36:00.555Z,77.26
2017-12-05T19:38:28.909Z,79.23
2017-12-05T19:40:57.296Z,77.61
2017-12-05T19:43:26.483Z,74.17
2017-12-05T19:45:54.829Z,74.77
2017-12-05T19:48:23.187Z,74.85
2017-12-05T19:50:51.566Z,75.79
2017-12-05T19:53:19.994Z,78.60
2017-12-05T19:55:48.399Z,80.47
2017-12-05T19:58:16.779Z,79.26
2017-12-05T20:00:45.160Z,76.32
2017-12-05T20:03:13.529Z,76.44
2017-12-05T20:05:41.937Z,77.16
2017-12-05T20:08:10.311Z,77.06
2017-12-05T20:10:39.622Z,77.09
2017-12-05T20:13:07.968Z,77.61
2017-12-05T20:15:36.407Z,78.66
2017-12-05T20:18:04.771Z,79.65
2017-12-05T20:20:33.121Z,76.79
2017-12-05T20:23:01.465Z,76.40
2017-12-05T20:25:29.939Z,77.94
2017-12-05T20:27:58.428Z,79.24
2017-12-05T20:30:26.791Z,78.03
2017-12-05T20:32:55.142Z,78.00
2017-12-05T20:35:23.503Z,76.42
2017-12-05T20:37:51.976Z,74.15
2017-12-05T20:40:20.450Z,76.05
2017-12-05T20:42:48.832Z,76.30
2017-12-05T20:45:17.195Z,76.94
2017-12-05T20:47:45.562Z,78.03
2017-12-05T20:50:13.673Z,76.82
2017-12-05T20:52:41.747Z,76.27
2017-12-05T20:55:14.719Z,76.14
2017-12-05T20:57:42.817Z,78.34
2017-12-05T21:00:10.883Z,77.67
2017-12-05T21:02:38.952Z,78.42
2017-12-05T21:05:07.022Z,81.02
2017-12-05T21:07:35.115Z,80.52
2017-12-05T21:10:03.313Z,81.10
2017-12-05T21:12:31.375Z,79.57
2017-12-05T21:14:59.448Z,80.12
2017-12-05T21:17:27.578Z,79.78
2017-12-05T21:19:55.709Z,80.59
2017-12-05T21:22:23.779Z,81.53
2017-12-05T21:24:51.852Z,81.11
2017-12-05T21:27:20.325Z,81.05
2017-12-05T21:29:48.423Z,80.85
2017-12-05T21:32:16.707Z,77.80
2017-12-05T21:34:44.773Z,79.46
2017-12-05T21:37:12.851Z,80.09
2017-12-05T21:39:40.960Z,77.80
2017-12-05T21:42:09.076Z,80.22
2017-12-05T21:44:37.141Z,79.65
2017-12-05T21:47:05.207Z,80.10
2017-12-05T21:49:33.272Z,81.38
2017-12-05T21:52:01.339Z,80.15
2017-12-05T21:54:29.619Z,78.46
2017-12-05T21:56:57.675Z,76.83
2017-12-05T21:59:25.747Z,76.98
2017-12-05T22:01:53.843Z,78.77
2017-12-05T22:04:21.927Z,80.79
2017-12-05T22:06:49.994Z,80.49
2017-12-05T22:09:18.500Z,78.80
2017-12-05T22:11:46.868Z,78.32
2017-12-05T22:14:15.219Z,76.10
2017-12-05T22:16:43.591Z,76.00
2017-12-05T22:19:11.932Z,76.83
2017-12-05T22:21:40.327Z,77.64
2017-12-05T22:24:08.672Z,77.20
2017-12-05T22:26:37.052Z,76.12
2017-12-05T22:29:05.429Z,76.62
2017-12-05T22:31:33.776Z,78.75
2017-12-05T22:34:08.074Z,78.23
2017-12-05T22:36:36.427Z,79.13
2017-12-05T22:39:04.810Z,76.91
2017-12-05T22:41:33.169Z,76.90
2017-12-05T22:44:01.511Z,76.94
2017-12-05T22:46:29.859Z,77.27
2017-12-05T22:48:58.334Z,75.52
2017-12-05T22:51:26.683Z,75.92
2017-12-05T22:53:55.040Z,75.01
2017-12-05T22:56:23.422Z,77.82
2017-12-05T22:58:51.786Z,76.14
2017-12-05T23:01:20.184Z,77.56
2017-12-05T23:03:48.551Z,77.16
2017-12-05T23:06:16.900Z,80.87
2017-12-05T23:08:45.260Z,81.32
2017-12-05T23:11:13.639Z,80.30
2017-12-05T23:13:42.025Z,79.71
2017-12-05T23:16:10.395Z,80.17
2017-12-05T23:18:38.784Z,79.42
2017-12-05T23:21:07.151Z,77.44
2017-12-05T23:23:35.519Z,78.14
2017-12-05T23:26:03.907Z,79.42
2017-12-05T23:28:32.267Z,79.67
2017-12-05T23:31:00.676Z,79.38
2017-12-05T23:33:29.038Z,77.69
2017-12-05T23:35:57.527Z,78.79
2017-12-05T23:38:25.865Z,80.13
2017-12-05T23:40:54.244Z,78.09
2017-12-05T23:43:22.600Z,77.42
2017-12-05T23:45:50.959Z,77.20
2017-12-05T23:48:19.344Z,76.46
2017-12-05T23:50:47.691Z,76.11
2017-12-05T23:53:16.198Z,77.27
2017-12-05T23:55:44.588Z,78.01
2017-12-05T23:58:12.939Z,76.93
